sensor_id;sensor_type;location;lat;lon;timestamp;pressure;altitude;pressure_sealevel;temperature;humidity
72959;BME280;60008;50.826;6.896;2023-04-23T00:01:42;100312.47;;;11.25;100.00
72959;BME280;60008;50.826;6.896;2023-04-23T00:04:29;100310.47;;;11.27;100.00
72959;BME280;60008;50.826;6.896;2023-04-23T00:07:18;100305.13;;;11.35;100.00
72959;BME280;60008;50.826;6.896;2023-04-23T00:10:05;100301.63;;;11.35;100.00
72959;BME280;60008;50.826;6.896;2023-04-23T00:12:52;100305.63;;;11.31;100.00
72959;BME280;60008;50.826;6.896;2023-04-23T00:15:38;100306.28;;;11.33;100.00
72959;BME280;60008;50.826;6.896;2023-04-23T00:18:23;100292.53;;;11.29;100.00
72959;BME280;60008;50.826;6.896;2023-04-23T00:21:08;100305.97;;;11.28;100.00
72959;BME280;60008;50.826;6.896;2023-04-23T00:23:53;100309.06;;;11.17;100.00
72959;BME280;60008;50.826;6.896;2023-04-23T00:26:38;100309.75;;;11.11;100.00
72959;BME280;60008;50.826;6.896;2023-04-23T00:29:23;100305.09;;;11.13;100.00
72959;BME280;60008;50.826;6.896;2023-04-23T00:32:08;100303.16;;;10.99;100.00
72959;BME280;60008;50.826;6.896;2023-04-23T00:34:53;100307.81;;;10.97;100.00
72959;BME280;60008;50.826;6.896;2023-04-23T00:37:39;100314.47;;;10.93;100.00
72959;BME280;60008;50.826;6.896;2023-04-23T00:40:24;100305.22;;;10.89;100.00
72959;BME280;60008;50.826;6.896;2023-04-23T00:43:09;100300.75;;;10.89;100.00
72959;BME280;60008;50.826;6.896;2023-04-23T00:45:55;100308.41;;;10.84;100.00
72959;BME280;60008;50.826;6.896;2023-04-23T00:48:40;100300.78;;;10.81;100.00
72959;BME280;60008;50.826;6.896;2023-04-23T00:51:27;100302.59;;;10.81;100.00
72959;BME280;60008;50.826;6.896;2023-04-23T00:54:12;100299.13;;;10.80;100.00
72959;BME280;60008;50.826;6.896;2023-04-23T00:56:58;100302.41;;;10.82;100.00
72959;BME280;60008;50.826;6.896;2023-04-23T00:59:44;100302.41;;;10.82;100.00
72959;BME280;60008;50.826;6.896;2023-04-23T01:02:29;100300.78;;;10.81;100.00
72959;BME280;60008;50.826;6.896;2023-04-23T01:05:16;100300.09;;;10.79;100.00
72959;BME280;60008;50.826;6.896;2023-04-23T01:08:01;100295.97;;;10.76;100.00
72959;BME280;60008;50.826;6.896;2023-04-23T01:10:48;100294.34;;;10.75;100.00
72959;BME280;60008;50.826;6.896;2023-04-23T01:13:33;100290.69;;;10.76;100.00
72959;BME280;60008;50.826;6.896;2023-04-23T01:16:18;100294.00;;;10.79;100.00
72959;BME280;60008;50.826;6.896;2023-04-23T01:19:05;100295.34;;;10.74;100.00
72959;BME280;60008;50.826;6.896;2023-04-23T01:21:50;100297.19;;;10.66;100.00
72959;BME280;60008;50.826;6.896;2023-04-23T01:24:35;100297.88;;;10.60;100.00
72959;BME280;60008;50.826;6.896;2023-04-23T01:27:21;100298.25;;;10.57;100.00
72959;BME280;60008;50.826;6.896;2023-04-23T01:30:08;100298.09;;;10.50;100.00
72959;BME280;60008;50.826;6.896;2023-04-23T01:32:54;100305.72;;;10.45;100.00
72959;BME280;60008;50.826;6.896;2023-04-23T01:35:40;100301.59;;;10.43;100.00
72959;BME280;60008;50.826;6.896;2023-04-23T01:38:27;100312.53;;;10.40;100.00
72959;BME280;60008;50.826;6.896;2023-04-23T01:41:14;100317.50;;;10.43;100.00
72959;BME280;60008;50.826;6.896;2023-04-23T01:44:00;100309.69;;;10.41;100.00
72959;BME280;60008;50.826;6.896;2023-04-23T01:46:45;100308.03;;;10.48;100.00
72959;BME280;60008;50.826;6.896;2023-04-23T01:49:31;100308.69;;;10.50;100.00
72959;BME280;60008;50.826;6.896;2023-04-23T01:52:15;100300.25;;;10.47;100.00
72959;BME280;60008;50.826;6.896;2023-04-23T01:55:01;100310.19;;;10.45;100.00
72959;BME280;60008;50.826;6.896;2023-04-23T01:57:46;100307.84;;;10.50;100.00
72959;BME280;60008;50.826;6.896;2023-04-23T02:00:31;100306.69;;;10.44;100.00
72959;BME280;60008;50.826;6.896;2023-04-23T02:03:16;100304.06;;;10.44;100.00
72959;BME280;60008;50.826;6.896;2023-04-23T02:06:02;100307.72;;;10.43;100.00
72959;BME280;60008;50.826;6.896;2023-04-23T02:08:48;100305.22;;;10.42;100.00
72959;BME280;60008;50.826;6.896;2023-04-23T02:11:33;100312.22;;;10.35;100.00
72959;BME280;60008;50.826;6.896;2023-04-23T02:14:18;100317.88;;;10.24;100.00
72959;BME280;60008;50.826;6.896;2023-04-23T02:17:04;100304.94;;;10.21;100.00
72959;BME280;60008;50.826;6.896;2023-04-23T02:19:49;100309.75;;;10.17;100.00
72959;BME280;60008;50.826;6.896;2023-04-23T02:22:39;100309.75;;;10.17;100.00
72959;BME280;60008;50.826;6.896;2023-04-23T02:25:24;100317.03;;;10.15;100.00
72959;BME280;60008;50.826;6.896;2023-04-23T02:28:09;100303.78;;;10.07;100.00
72959;BME280;60008;50.826;6.896;2023-04-23T02:30:57;100302.66;;;9.93;100.00
72959;BME280;60008;50.826;6.896;2023-04-23T02:33:42;100311.25;;;9.87;100.00
72959;BME280;60008;50.826;6.896;2023-04-23T02:36:26;100309.94;;;9.83;100.00
72959;BME280;60008;50.826;6.896;2023-04-23T02:39:14;100311.25;;;9.79;100.00
72959;BME280;60008;50.826;6.896;2023-04-23T02:41:59;100314.41;;;9.75;100.00
72959;BME280;60008;50.826;6.896;2023-04-23T02:44:45;100310.09;;;9.66;100.00
72959;BME280;60008;50.826;6.896;2023-04-23T02:47:31;100306.28;;;9.60;100.00
72959;BME280;60008;50.826;6.896;2023-04-23T02:50:15;100307.31;;;9.59;100.00
72959;BME280;60008;50.826;6.896;2023-04-23T02:53:01;100308.09;;;9.59;100.00
72959;BME280;60008;50.826;6.896;2023-04-23T02:55:45;100305.97;;;9.63;100.00
72959;BME280;60008;50.826;6.896;2023-04-23T02:58:30;100304.28;;;9.62;100.00
72959;BME280;60008;50.826;6.896;2023-04-23T03:01:16;100297.38;;;9.61;100.00
72959;BME280;60008;50.826;6.896;2023-04-23T03:04:01;100310.75;;;9.59;100.00
72959;BME280;60008;50.826;6.896;2023-04-23T03:06:47;100306.47;;;9.67;100.00
72959;BME280;60008;50.826;6.896;2023-04-23T03:09:32;100303.16;;;9.65;100.00
72959;BME280;60008;50.826;6.896;2023-04-23T03:12:17;100301.81;;;9.61;100.00
72959;BME280;60008;50.826;6.896;2023-04-23T03:15:02;100305.47;;;9.68;100.00
72959;BME280;60008;50.826;6.896;2023-04-23T03:17:47;100304.31;;;9.70;100.00
72959;BME280;60008;50.826;6.896;2023-04-23T03:20:33;100305.13;;;9.63;100.00
72959;BME280;60008;50.826;6.896;2023-04-23T03:23:18;100303.81;;;9.58;100.00
72959;BME280;60008;50.826;6.896;2023-04-23T03:26:03;100309.09;;;9.50;100.00
72959;BME280;60008;50.826;6.896;2023-04-23T03:28:48;100304.81;;;9.57;100.00
72959;BME280;60008;50.826;6.896;2023-04-23T03:31:33;100301.81;;;9.61;100.00
72959;BME280;60008;50.826;6.896;2023-04-23T03:34:18;100306.47;;;9.75;100.00
72959;BME280;60008;50.826;6.896;2023-04-23T03:37:03;100289.75;;;9.74;100.00
72959;BME280;60008;50.826;6.896;2023-04-23T03:39:48;100287.44;;;9.79;100.00
72959;BME280;60008;50.826;6.896;2023-04-23T03:42:33;100294.72;;;9.85;100.00
72959;BME280;60008;50.826;6.896;2023-04-23T03:45:18;100287.94;;;9.83;100.00
72959;BME280;60008;50.826;6.896;2023-04-23T03:48:03;100287.75;;;9.84;100.00
72959;BME280;60008;50.826;6.896;2023-04-23T03:50:48;100290.06;;;9.87;100.00
72959;BME280;60008;50.826;6.896;2023-04-23T03:53:33;100279.81;;;9.84;100.00
72959;BME280;60008;50.826;6.896;2023-04-23T03:56:18;100285.59;;;9.88;100.00
72959;BME280;60008;50.826;6.896;2023-04-23T03:59:03;100287.09;;;9.90;100.00
72959;BME280;60008;50.826;6.896;2023-04-23T04:01:48;100291.22;;;9.93;100.00
72959;BME280;60008;50.826;6.896;2023-04-23T04:05:23;100286.75;;;9.93;100.00
72959;BME280;60008;50.826;6.896;2023-04-23T04:08:09;100282.44;;;9.92;100.00
72959;BME280;60008;50.826;6.896;2023-04-23T04:10:57;100271.38;;;9.97;100.00
72959;BME280;60008;50.826;6.896;2023-04-23T04:13:42;100272.38;;;9.96;100.00
72959;BME280;60008;50.826;6.896;2023-04-23T04:16:27;100273.19;;;9.96;100.00
72959;BME280;60008;50.826;6.896;2023-04-23T04:19:14;100265.09;;;9.90;100.00
72959;BME280;60008;50.826;6.896;2023-04-23T04:22:02;100262.75;;;9.95;100.00
72959;BME280;60008;50.826;6.896;2023-04-23T04:24:47;100272.38;;;9.96;100.00
72959;BME280;60008;50.826;6.896;2023-04-23T04:27:34;100272.38;;;9.96;100.00
72959;BME280;60008;50.826;6.896;2023-04-23T04:30:20;100264.59;;;9.94;100.00
72959;BME280;60008;50.826;6.896;2023-04-23T04:33:05;100270.38;;;9.90;100.00
72959;BME280;60008;50.826;6.896;2023-04-23T04:35:50;100265.41;;;9.95;100.00
72959;BME280;60008;50.826;6.896;2023-04-23T04:38:35;100272.38;;;9.96;100.00
72959;BME280;60008;50.826;6.896;2023-04-23T04:41:26;100280.81;;;9.99;100.00
72959;BME280;60008;50.826;6.896;2023-04-23T04:44:11;100280.94;;;10.06;100.00
72959;BME280;60008;50.826;6.896;2023-04-23T04:46:57;100279.31;;;10.05;100.00
72959;BME280;60008;50.826;6.896;2023-04-23T04:49:43;100283.44;;;10.07;100.00
72959;BME280;60008;50.826;6.896;2023-04-23T04:52:28;100288.75;;;10.15;100.00
72959;BME280;60008;50.826;6.896;2023-04-23T04:55:13;100283.44;;;10.15;100.00
72959;BME280;60008;50.826;6.896;2023-04-23T04:57:58;100282.09;;;10.20;100.00
72959;BME280;60008;50.826;6.896;2023-04-23T05:00:43;100277.31;;;10.23;100.00
72959;BME280;60008;50.826;6.896;2023-04-23T05:03:31;100282.25;;;10.26;100.00
72959;BME280;60008;50.826;6.896;2023-04-23T05:06:16;100271.84;;;10.33;100.00
72959;BME280;60008;50.826;6.896;2023-04-23T05:09:01;100270.66;;;10.35;100.00
72959;BME280;60008;50.826;6.896;2023-04-23T05:11:46;100275.47;;;10.32;100.00
72959;BME280;60008;50.826;6.896;2023-04-23T05:14:32;100275.59;;;10.38;100.00
72959;BME280;60008;50.826;6.896;2023-04-23T05:17:18;100271.63;;;10.42;100.00
72959;BME280;60008;50.826;6.896;2023-04-23T05:20:02;100273.91;;;10.53;100.00
72959;BME280;60008;50.826;6.896;2023-04-23T05:22:48;100263.78;;;10.57;100.00
72959;BME280;60008;50.826;6.896;2023-04-23T05:25:33;100266.75;;;10.62;100.00
72959;BME280;60008;50.826;6.896;2023-04-23T05:28:19;100263.03;;;10.71;100.00
72959;BME280;60008;50.826;6.896;2023-04-23T05:31:04;100263.38;;;10.76;100.00
72959;BME280;60008;50.826;6.896;2023-04-23T05:33:49;100256.38;;;10.83;100.00
72959;BME280;60008;50.826;6.896;2023-04-23T05:36:34;100258.38;;;10.81;100.00
72959;BME280;60008;50.826;6.896;2023-04-23T05:39:20;100243.56;;;10.95;100.00
72959;BME280;60008;50.826;6.896;2023-04-23T05:42:06;100242.88;;;10.93;100.00
72959;BME280;60008;50.826;6.896;2023-04-23T05:44:51;100249.09;;;11.08;100.00
72959;BME280;60008;50.826;6.896;2023-04-23T05:47:36;100241.63;;;11.11;100.00
72959;BME280;60008;50.826;6.896;2023-04-23T05:50:21;100249.88;;;11.16;100.00
72959;BME280;60008;50.826;6.896;2023-04-23T05:53:06;100246.88;;;11.19;100.00
72959;BME280;60008;50.826;6.896;2023-04-23T05:55:51;100249.91;;;11.31;100.00
72959;BME280;60008;50.826;6.896;2023-04-23T05:58:36;100238.44;;;11.39;100.00
72959;BME280;60008;50.826;6.896;2023-04-23T06:01:23;100230.75;;;11.44;100.00
72959;BME280;60008;50.826;6.896;2023-04-23T06:04:08;100241.47;;;11.50;100.00
72959;BME280;60008;50.826;6.896;2023-04-23T06:06:53;100233.72;;;11.63;100.00
72959;BME280;60008;50.826;6.896;2023-04-23T06:09:39;100238.63;;;11.74;100.00
72959;BME280;60008;50.826;6.896;2023-04-23T06:12:25;100228.47;;;11.78;100.00
72959;BME280;60008;50.826;6.896;2023-04-23T06:15:10;100227.75;;;11.84;100.00
72959;BME280;60008;50.826;6.896;2023-04-23T06:17:55;100227.56;;;11.85;100.00
72959;BME280;60008;50.826;6.896;2023-04-23T06:20:40;100222.56;;;12.05;100.00
72959;BME280;60008;50.826;6.896;2023-04-23T06:23:25;100224.88;;;12.23;100.00
72959;BME280;60008;50.826;6.896;2023-04-23T06:26:10;100212.56;;;12.36;100.00
72959;BME280;60008;50.826;6.896;2023-04-23T06:28:55;100211.44;;;12.45;100.00
72959;BME280;60008;50.826;6.896;2023-04-23T06:31:40;100208.25;;;12.50;100.00
72959;BME280;60008;50.826;6.896;2023-04-23T06:34:26;100209.72;;;12.52;100.00
72959;BME280;60008;50.826;6.896;2023-04-23T06:37:11;100215.09;;;12.59;100.00
72959;BME280;60008;50.826;6.896;2023-04-23T06:39:57;100211.78;;;12.72;100.00
72959;BME280;60008;50.826;6.896;2023-04-23T06:42:43;100208.09;;;12.73;100.00
72959;BME280;60008;50.826;6.896;2023-04-23T06:45:30;100200.00;;;12.81;100.00
72959;BME280;60008;50.826;6.896;2023-04-23T06:48:15;100194.56;;;12.89;100.00
72959;BME280;60008;50.826;6.896;2023-04-23T06:51:02;100190.31;;;12.94;100.00
72959;BME280;60008;50.826;6.896;2023-04-23T06:53:47;100189.13;;;12.97;100.00
72959;BME280;60008;50.826;6.896;2023-04-23T06:56:32;100180.53;;;13.16;100.00
72959;BME280;60008;50.826;6.896;2023-04-23T06:59:17;100180.41;;;13.24;100.00
72959;BME280;60008;50.826;6.896;2023-04-23T07:02:03;100181.34;;;13.38;100.00
72959;BME280;60008;50.826;6.896;2023-04-23T07:04:48;100174.28;;;13.51;100.00
72959;BME280;60008;50.826;6.896;2023-04-23T07:07:33;100174.19;;;13.66;100.00
72959;BME280;60008;50.826;6.896;2023-04-23T07:10:21;100165.06;;;13.75;100.00
72959;BME280;60008;50.826;6.896;2023-04-23T07:13:06;100165.81;;;13.97;100.00
72959;BME280;60008;50.826;6.896;2023-04-23T07:15:51;100162.72;;;14.00;100.00
72959;BME280;60008;50.826;6.896;2023-04-23T07:18:37;100160.16;;;14.13;100.00
72959;BME280;60008;50.826;6.896;2023-04-23T07:21:22;100163.53;;;13.94;100.00
72959;BME280;60008;50.826;6.896;2023-04-23T07:24:07;100161.06;;;13.64;100.00
72959;BME280;60008;50.826;6.896;2023-04-23T07:26:52;100162.09;;;13.63;100.00
72959;BME280;60008;50.826;6.896;2023-04-23T07:29:37;100151.31;;;13.78;100.00
72959;BME280;60008;50.826;6.896;2023-04-23T07:32:22;100144.13;;;13.72;100.00
72959;BME280;60008;50.826;6.896;2023-04-23T07:35:11;100136.59;;;13.82;100.00
72959;BME280;60008;50.826;6.896;2023-04-23T07:37:58;100136.16;;;13.72;100.00
72959;BME280;60008;50.826;6.896;2023-04-23T07:40:43;100144.31;;;14.05;100.00
72959;BME280;60008;50.826;6.896;2023-04-23T07:43:28;100140.56;;;14.34;100.00
72959;BME280;60008;50.826;6.896;2023-04-23T07:46:13;100134.91;;;14.63;100.00
72959;BME280;60008;50.826;6.896;2023-04-23T07:48:58;100134.38;;;15.07;100.00
72959;BME280;60008;50.826;6.896;2023-04-23T07:51:43;100144.03;;;15.01;100.00
72959;BME280;60008;50.826;6.896;2023-04-23T07:54:28;100139.22;;;14.57;100.00
72959;BME280;60008;50.826;6.896;2023-04-23T07:57:13;100144.19;;;14.73;100.00
72959;BME280;60008;50.826;6.896;2023-04-23T08:00:00;100124.53;;;15.33;100.00
72959;BME280;60008;50.826;6.896;2023-04-23T08:02:46;100136.44;;;15.05;100.00
72959;BME280;60008;50.826;6.896;2023-04-23T08:05:31;100129.44;;;15.63;100.00
72959;BME280;60008;50.826;6.896;2023-04-23T08:08:18;100129.25;;;15.44;100.00
72959;BME280;60008;50.826;6.896;2023-04-23T08:11:05;100110.16;;;15.47;100.00
72959;BME280;60008;50.826;6.896;2023-04-23T08:13:50;100121.06;;;15.46;100.00
72959;BME280;60008;50.826;6.896;2023-04-23T08:16:35;100125.34;;;15.34;100.00
72959;BME280;60008;50.826;6.896;2023-04-23T08:19:22;100128.44;;;15.31;100.00
72959;BME280;60008;50.826;6.896;2023-04-23T08:22:08;100126.78;;;15.17;100.00
72959;BME280;60008;50.826;6.896;2023-04-23T08:24:54;100122.03;;;14.93;100.00
72959;BME280;60008;50.826;6.896;2023-04-23T08:27:39;100117.94;;;15.69;100.00
72959;BME280;60008;50.826;6.896;2023-04-23T08:30:27;100111.53;;;15.89;100.00
72959;BME280;60008;50.826;6.896;2023-04-23T08:33:11;100113.00;;;15.79;100.00
72959;BME280;60008;50.826;6.896;2023-04-23T08:35:57;100107.31;;;16.13;100.00
72959;BME280;60008;50.826;6.896;2023-04-23T08:38:42;100103.22;;;16.04;100.00
72959;BME280;60008;50.826;6.896;2023-04-23T08:41:34;100099.41;;;15.74;100.00
72959;BME280;60008;50.826;6.896;2023-04-23T08:44:24;100102.06;;;16.38;100.00
72959;BME280;60008;50.826;6.896;2023-04-23T08:47:10;100084.66;;;18.50;100.00
72959;BME280;60008;50.826;6.896;2023-04-23T08:49:58;100082.13;;;19.31;100.00
72959;BME280;60008;50.826;6.896;2023-04-23T08:52:46;100085.75;;;19.83;100.00
72959;BME280;60008;50.826;6.896;2023-04-23T08:55:34;100088.97;;;20.08;100.00
72959;BME280;60008;50.826;6.896;2023-04-23T08:58:20;100079.81;;;18.70;100.00
72959;BME280;60008;50.826;6.896;2023-04-23T09:01:06;100084.88;;;17.39;100.00
72959;BME280;60008;50.826;6.896;2023-04-23T09:03:52;100089.13;;;16.28;100.00
72959;BME280;60008;50.826;6.896;2023-04-23T09:06:37;100082.59;;;16.62;100.00
72959;BME280;60008;50.826;6.896;2023-04-23T09:09:23;100076.50;;;16.04;100.00
72959;BME280;60008;50.826;6.896;2023-04-23T09:12:08;100085.78;;;16.39;100.00
72959;BME280;60008;50.826;6.896;2023-04-23T09:14:53;100071.41;;;18.18;100.00
72959;BME280;60008;50.826;6.896;2023-04-23T09:17:41;100056.69;;;19.45;100.00
72959;BME280;60008;50.826;6.896;2023-04-23T09:20:27;100056.97;;;20.96;97.64
72959;BME280;60008;50.826;6.896;2023-04-23T09:23:13;100051.16;;;21.38;82.68
72959;BME280;60008;50.826;6.896;2023-04-23T09:25:58;100051.84;;;20.22;97.85
72959;BME280;60008;50.826;6.896;2023-04-23T09:28:43;100042.63;;;22.81;80.34
72959;BME280;60008;50.826;6.896;2023-04-23T09:31:34;100043.19;;;19.80;91.13
72959;BME280;60008;50.826;6.896;2023-04-23T09:34:21;100048.88;;;18.67;100.00
72959;BME280;60008;50.826;6.896;2023-04-23T09:37:06;100042.59;;;18.14;100.00
72959;BME280;60008;50.826;6.896;2023-04-23T09:39:58;100032.22;;;19.70;96.92
72959;BME280;60008;50.826;6.896;2023-04-23T09:42:47;100041.59;;;19.55;91.49
72959;BME280;60008;50.826;6.896;2023-04-23T09:45:33;100042.16;;;19.11;97.81
72959;BME280;60008;50.826;6.896;2023-04-23T09:48:19;100030.53;;;19.40;89.34
72959;BME280;60008;50.826;6.896;2023-04-23T09:51:05;100032.97;;;19.42;90.21
72959;BME280;60008;50.826;6.896;2023-04-23T09:53:50;100036.53;;;19.71;90.99
72959;BME280;60008;50.826;6.896;2023-04-23T09:56:35;100042.41;;;19.10;94.46
72959;BME280;60008;50.826;6.896;2023-04-23T09:59:24;100039.13;;;19.19;89.49
72959;BME280;60008;50.826;6.896;2023-04-23T10:02:30;100021.56;;;18.29;97.86
72959;BME280;60008;50.826;6.896;2023-04-23T10:05:19;100028.16;;;18.86;97.44
72959;BME280;60008;50.826;6.896;2023-04-23T10:08:14;100023.59;;;19.33;86.01
72959;BME280;60008;50.826;6.896;2023-04-23T10:10:59;100028.66;;;18.53;92.98
72959;BME280;60008;50.826;6.896;2023-04-23T10:14:03;100033.72;;;18.13;92.75
72959;BME280;60008;50.826;6.896;2023-04-23T10:16:56;100027.59;;;17.58;95.57
72959;BME280;60008;50.826;6.896;2023-04-23T10:19:41;100029.06;;;17.36;100.00
72959;BME280;60008;50.826;6.896;2023-04-23T10:22:29;100028.69;;;17.33;99.25
72959;BME280;60008;50.826;6.896;2023-04-23T10:25:14;100036.75;;;17.87;98.15
72959;BME280;60008;50.826;6.896;2023-04-23T10:28:02;100032.97;;;17.58;100.00
72959;BME280;60008;50.826;6.896;2023-04-23T10:30:48;100037.22;;;17.66;96.40
72959;BME280;60008;50.826;6.896;2023-04-23T10:33:34;100036.03;;;17.62;96.81
72959;BME280;60008;50.826;6.896;2023-04-23T10:36:39;100031.34;;;17.57;98.35
72959;BME280;60008;50.826;6.896;2023-04-23T10:39:26;100033.84;;;17.52;96.11
72959;BME280;60008;50.826;6.896;2023-04-23T10:42:14;100024.28;;;17.20;100.00
72959;BME280;60008;50.826;6.896;2023-04-23T10:45:00;100023.91;;;17.35;98.73
72959;BME280;60008;50.826;6.896;2023-04-23T10:47:57;100017.44;;;17.24;96.60
72959;BME280;60008;50.826;6.896;2023-04-23T10:50:42;100017.63;;;17.65;98.04
72959;BME280;60008;50.826;6.896;2023-04-23T10:53:50;100007.75;;;17.66;91.41
72959;BME280;60008;50.826;6.896;2023-04-23T10:56:39;100008.81;;;17.95;94.44
72959;BME280;60008;50.826;6.896;2023-04-23T10:59:25;99995.66;;;18.64;86.26
72959;BME280;60008;50.826;6.896;2023-04-23T11:02:12;99988.84;;;19.66;75.19
72959;BME280;60008;50.826;6.896;2023-04-23T11:04:57;99982.19;;;19.69;74.25
72959;BME280;60008;50.826;6.896;2023-04-23T11:08:05;99980.28;;;19.81;71.82
72959;BME280;60008;50.826;6.896;2023-04-23T11:11:00;99971.88;;;18.38;75.62
72959;BME280;60008;50.826;6.896;2023-04-23T11:13:54;99988.88;;;17.72;85.74
72959;BME280;60008;50.826;6.896;2023-04-23T11:16:47;99978.44;;;17.10;88.42
72959;BME280;60008;50.826;6.896;2023-04-23T11:19:36;99985.78;;;16.96;93.10
72959;BME280;60008;50.826;6.896;2023-04-23T11:22:21;99976.59;;;16.86;94.34
72959;BME280;60008;50.826;6.896;2023-04-23T11:25:26;99976.34;;;16.69;97.62
72959;BME280;60008;50.826;6.896;2023-04-23T11:28:12;99976.41;;;16.62;97.51
72959;BME280;60008;50.826;6.896;2023-04-23T11:31:00;99972.06;;;16.86;95.00
72959;BME280;60008;50.826;6.896;2023-04-23T11:33:56;99973.22;;;17.58;92.74
72959;BME280;60008;50.826;6.896;2023-04-23T11:37:09;99965.31;;;18.64;87.03
72959;BME280;60008;50.826;6.896;2023-04-23T11:40:32;99948.66;;;18.32;89.27
72959;BME280;60008;50.826;6.896;2023-04-23T11:43:21;99950.28;;;17.92;89.76
72959;BME280;60008;50.826;6.896;2023-04-23T11:46:35;99952.47;;;18.66;87.61
72959;BME280;60008;50.826;6.896;2023-04-23T11:49:18;99933.44;;;18.56;81.56
72959;BME280;60008;50.826;6.896;2023-04-23T11:52:13;99939.81;;;18.31;86.72
72959;BME280;60008;50.826;6.896;2023-04-23T11:59:06;99936.38;;;18.66;87.15
72959;BME280;60008;50.826;6.896;2023-04-23T12:02:37;99918.41;;;18.66;85.70
72959;BME280;60008;50.826;6.896;2023-04-23T12:05:40;99918.16;;;18.68;79.24
72959;BME280;60008;50.826;6.896;2023-04-23T12:09:06;99913.34;;;18.47;81.51
72959;BME280;60008;50.826;6.896;2023-04-23T12:12:06;99905.31;;;18.93;79.10
72959;BME280;60008;50.826;6.896;2023-04-23T12:15:04;99887.00;;;18.67;79.64
72959;BME280;60008;50.826;6.896;2023-04-23T12:18:25;99887.81;;;18.56;80.33
72959;BME280;60008;50.826;6.896;2023-04-23T12:21:13;99888.28;;;18.64;78.22
72959;BME280;60008;50.826;6.896;2023-04-23T12:23:58;99878.22;;;18.94;78.23
72959;BME280;60008;50.826;6.896;2023-04-23T12:26:49;99873.94;;;18.59;77.98
72959;BME280;60008;50.826;6.896;2023-04-23T12:29:37;99879.00;;;18.14;76.03
72959;BME280;60008;50.826;6.896;2023-04-23T12:32:34;99859.53;;;18.41;79.15
72959;BME280;60008;50.826;6.896;2023-04-23T12:35:35;99861.63;;;18.28;77.94
72959;BME280;60008;50.826;6.896;2023-04-23T12:38:37;99862.28;;;18.00;79.22
72959;BME280;60008;50.826;6.896;2023-04-23T12:41:54;99854.53;;;18.33;82.14
72959;BME280;60008;50.826;6.896;2023-04-23T12:44:42;99859.66;;;18.47;74.15
72959;BME280;60008;50.826;6.896;2023-04-23T12:47:34;99853.50;;;18.69;73.00
72959;BME280;60008;50.826;6.896;2023-04-23T12:50:19;99846.72;;;18.43;72.33
72959;BME280;60008;50.826;6.896;2023-04-23T12:53:05;99855.91;;;18.24;69.36
72959;BME280;60008;50.826;6.896;2023-04-23T12:55:50;99848.25;;;18.74;65.69
72959;BME280;60008;50.826;6.896;2023-04-23T12:58:35;99840.44;;;18.61;66.76
72959;BME280;60008;50.826;6.896;2023-04-23T13:01:20;99825.81;;;18.45;71.02
72959;BME280;60008;50.826;6.896;2023-04-23T13:04:08;99827.22;;;18.83;69.26
72959;BME280;60008;50.826;6.896;2023-04-23T13:06:53;99809.38;;;18.77;68.23
72959;BME280;60008;50.826;6.896;2023-04-23T13:09:38;99806.81;;;18.24;69.24
72959;BME280;60008;50.826;6.896;2023-04-23T13:12:23;99809.84;;;18.04;71.37
72959;BME280;60008;50.826;6.896;2023-04-23T13:15:10;99815.56;;;18.19;70.32
72959;BME280;60008;50.826;6.896;2023-04-23T13:17:56;99814.03;;;18.00;68.35
72959;BME280;60008;50.826;6.896;2023-04-23T13:20:43;99806.81;;;18.12;72.26
72959;BME280;60008;50.826;6.896;2023-04-23T13:23:29;99805.19;;;18.11;77.08
72959;BME280;60008;50.826;6.896;2023-04-23T13:26:16;99799.44;;;17.84;75.16
72959;BME280;60008;50.826;6.896;2023-04-23T13:29:02;99797.75;;;17.72;73.30
72959;BME280;60008;50.826;6.896;2023-04-23T13:31:47;99799.66;;;17.83;78.82
72959;BME280;60008;50.826;6.896;2023-04-23T13:34:32;99796.03;;;17.77;77.11
72959;BME280;60008;50.826;6.896;2023-04-23T13:37:18;99795.44;;;17.75;78.73
72959;BME280;60008;50.826;6.896;2023-04-23T13:40:03;99789.19;;;17.52;79.96
72959;BME280;60008;50.826;6.896;2023-04-23T13:42:49;99785.50;;;17.35;83.62
72959;BME280;60008;50.826;6.896;2023-04-23T13:45:35;99772.69;;;17.37;83.11
72959;BME280;60008;50.826;6.896;2023-04-23T13:48:20;99764.66;;;17.37;86.58
72959;BME280;60008;50.826;6.896;2023-04-23T13:51:05;99748.69;;;17.30;86.33
72959;BME280;60008;50.826;6.896;2023-04-23T13:54:10;99751.81;;;17.57;86.59
72959;BME280;60008;50.826;6.896;2023-04-23T13:56:55;99753.31;;;17.53;84.73
72959;BME280;60008;50.826;6.896;2023-04-23T13:59:40;99741.13;;;17.27;87.32
72959;BME280;60008;50.826;6.896;2023-04-23T14:02:26;99729.91;;;17.18;91.02
72959;BME280;60008;50.826;6.896;2023-04-23T14:05:11;99735.50;;;17.17;93.00
72959;BME280;60008;50.826;6.896;2023-04-23T14:07:56;99722.69;;;16.89;92.70
72959;BME280;60008;50.826;6.896;2023-04-23T14:10:41;99716.91;;;16.92;93.42
72959;BME280;60008;50.826;6.896;2023-04-23T14:13:29;99705.81;;;16.89;89.75
72959;BME280;60008;50.826;6.896;2023-04-23T14:16:17;99705.25;;;16.87;92.02
72959;BME280;60008;50.826;6.896;2023-04-23T14:19:02;99700.28;;;16.72;91.01
72959;BME280;60008;50.826;6.896;2023-04-23T14:21:47;99695.50;;;16.74;95.27
72959;BME280;60008;50.826;6.896;2023-04-23T14:24:34;99689.16;;;16.57;95.05
72959;BME280;60008;50.826;6.896;2023-04-23T14:27:22;99680.34;;;16.50;95.99
72959;BME280;60008;50.826;6.896;2023-04-23T14:30:18;99678.75;;;16.49;99.77
72959;BME280;60008;50.826;6.896;2023-04-23T14:33:03;99681.63;;;16.47;99.79
72959;BME280;60008;50.826;6.896;2023-04-23T14:35:48;99671.53;;;16.49;97.57
72959;BME280;60008;50.826;6.896;2023-04-23T14:38:34;99660.66;;;16.44;99.04